Weather reports worldwide

Advertisment
Bala, United Kingdom (3409): temperature & dewpoint: 11.07.2018 14:00:00 - 17.07.2018 14:00:00 (BST)Bala, United Kingdom (3409): temperature -20cm & temperature -100cm: 11.07.2018 14:00:00 - 17.07.2018 14:00:00 (BST)Bala, United Kingdom (3409): wind speed: 11.07.2018 14:00:00 - 17.07.2018 14:00:00 (BST)Bala, United Kingdom (3409): wind direction: 11.07.2018 14:00:00 - 17.07.2018 14:00:00 (BST)Bala, United Kingdom (3409): reduced air pressure: 11.07.2018 14:00:00 - 17.07.2018 14:00:00 (BST)Bala, United Kingdom (3409): sunshine duration: 11.07.2018 14:00:00 - 17.07.2018 14:00:00 (BST)Bala, United Kingdom (3409): precipitation: 11.07.2018 14:00:00 - 17.07.2018 14:00:00 (BST)
Date & Time tt [°C] td [°C] tt -20cm [°C] tt -100cm [°C] ff [km/h] ff [kn] dd ppp [hPa] sd [min] rr [mm]
17.07.2018 14:00:00 17,3 7,4 - - 15 8 W 1015,7 6 0,0
17.07.2018 13:00:00 16,7 6,9 - - 21 11 SW 1015,6 30 0,0
17.07.2018 12:00:00 16,0 10,1 - - 13 7 WSW 1015,7 18 0,0
17.07.2018 11:00:00 14,9 11,8 - - 11 6 SW 1015,8 0 0,0
17.07.2018 10:00:00 14,8 11,4 18,7 17,5 11 6 WSW 1015,5 0 0,0
17.07.2018 09:00:00 15,1 11,6 - - 13 7 SW 1015,1 0 0,0
17.07.2018 08:00:00 14,5 11,7 - - 8 4 SW 1015,1 0 0,0
17.07.2018 07:00:00 12,6 12,4 - - 2 1 NE 1014,9 0 0,0
17.07.2018 06:00:00 11,5 11,1 - - 4 2 ENE 1014,6 0 0,0
17.07.2018 05:00:00 11,4 11,0 - - 2 1 ENE 1014,4 0 0,0
17.07.2018 04:00:00 11,5 11,0 - - 2 1 N 1014,6 0 0,0
17.07.2018 03:00:00 11,3 10,7 - - 2 1 N 1014,5 0 0,0
17.07.2018 02:00:00 11,5 11,0 - - 2 1 WSW 1014,7 0 0,0
17.07.2018 01:00:00 11,0 10,0 - - 2 1 NNE 1015,1 - 0,0
17.07.2018 00:00:00 12,0 10,2 - - 4 2 SW 1015,1 0 0,0
16.07.2018 23:00:00 13,1 10,6 - - 8 4 SW 1015,1 0 0,0
16.07.2018 22:00:00 14,2 12,0 - - 16 9 WSW 1014,7 0 0,0
16.07.2018 21:00:00 14,7 12,7 - - 2 1 S 1014,1 12 0,2
16.07.2018 20:00:00 14,5 12,2 - - 2 1 NNE 1013,7 0 0,0
16.07.2018 19:00:00 14,2 12,3 - - 4 2 NNE 1013,6 0 0,2
16.07.2018 18:00:00 14,7 12,8 - - 4 2 N 1012,9 0 2,4
16.07.2018 17:00:00 16,8 15,4 - - 13 7 SW 1012,3 0 10,6
16.07.2018 16:00:00 19,1 16,4 - - 4 2 NNW 1012,0 18 0,4
16.07.2018 15:00:00 16,6 15,6 - - 8 4 E 1012,9 0 1,6
16.07.2018 14:00:00 16,3 15,1 - - 5 3 ENE 1013,3 0 2,4
16.07.2018 13:00:00 16,9 14,8 - - 8 4 ENE 1013,3 0 0,0
16.07.2018 12:00:00 16,1 14,6 - - 5 3 ENE 1013,6 0 0,0
16.07.2018 11:00:00 16,2 13,7 - - 4 2 E 1013,5 0 0,2
16.07.2018 10:00:00 18,0 14,6 19,0 17,4 5 3 WSW 1013,1 0 0,0
16.07.2018 09:00:00 17,4 15,1 - - 8 4 SW 1013,3 0 0,0
16.07.2018 08:00:00 17,2 14,9 - - 9 5 SW 1013,4 0 0,0
16.07.2018 07:00:00 16,5 15,2 - - 4 2 SSW 1013,4 0 0,0
16.07.2018 06:00:00 15,9 15,0 - - 4 2 SSW 1013,5 0 0,2
16.07.2018 05:00:00 16,0 14,5 - - 5 3 SW 1013,6 0 0,2
16.07.2018 04:00:00 16,3 15,0 - - 8 4 W 1013,9 0 0,0
16.07.2018 03:00:00 17,3 14,3 - - 9 5 WSW 1013,8 0 0,0
16.07.2018 02:00:00 17,1 14,5 - - 9 5 SW 1014,2 0 0,0
16.07.2018 01:00:00 17,1 14,8 - - 15 8 SW 1014,7 - 0,0
16.07.2018 00:00:00 17,7 14,3 - - 13 7 SW 1014,7 0 0,0
15.07.2018 23:00:00 17,5 14,3 - - 11 6 SW 1014,8 0 0,0
15.07.2018 22:00:00 17,4 14,1 - - 13 7 SW 1014,7 0 0,0
15.07.2018 21:00:00 18,2 13,8 - - 13 7 SW 1014,7 0 0,0
15.07.2018 20:00:00 19,1 14,0 - - 13 7 WSW 1014,6 0 0,0
15.07.2018 19:00:00 19,5 13,6 - - 15 8 WSW 1014,6 0 0,0
15.07.2018 18:00:00 20,2 13,8 - - 16 9 SW 1014,9 0 0,0
15.07.2018 17:00:00 20,3 13,8 - - 21 11 SW 1015,0 24 0,0
15.07.2018 16:00:00 20,7 13,5 - - 24 13 SW 1015,2 30 0,0
15.07.2018 15:00:00 22,0 13,6 - - 15 8 WSW 1015,0 42 0,0
15.07.2018 14:00:00 22,0 11,9 - - 21 11 SW 1015,1 54 0,0
15.07.2018 13:00:00 22,2 12,8 - - 21 11 SW 1015,5 54 0,0
15.07.2018 12:00:00 21,0 12,0 - - 22 12 SW 1015,7 54 0,0
15.07.2018 11:00:00 19,3 12,6 - - 11 6 WSW 1016,1 18 0,0
15.07.2018 10:00:00 19,0 12,5 19,0 17,4 16 9 WSW 1016,3 24 0,0
15.07.2018 09:00:00 18,5 13,6 - - 16 9 SW 1016,3 30 0,0
15.07.2018 08:00:00 17,3 13,6 - - 15 8 SW 1016,5 54 0,0
15.07.2018 07:00:00 16,4 13,8 - - 16 9 WSW 1016,5 0 0,0
15.07.2018 06:00:00 14,9 12,9 - - 8 4 WNW 1016,4 0 0,0
15.07.2018 05:00:00 14,8 13,0 - - 8 4 WNW 1016,7 0 0,0
15.07.2018 04:00:00 15,1 13,2 - - 5 3 W 1017,2 0 0,0
15.07.2018 03:00:00 14,5 12,5 - - 5 3 W 1017,3 0 0,0
15.07.2018 02:00:00 15,0 13,1 - - 8 4 W 1017,6 0 0,0
15.07.2018 01:00:00 14,9 12,9 - - 5 3 W 1017,9 - 0,0
15.07.2018 00:00:00 14,5 12,2 - - 4 2 WNW 1018,2 0 0,0
14.07.2018 23:00:00 15,2 12,6 - - 5 3 WSW 1018,6 0 0,0
14.07.2018 22:00:00 16,0 12,5 - - 16 9 SW 1018,4 12 0,0
14.07.2018 21:00:00 17,5 11,9 - - 13 7 WSW 1018,2 42 0,0
14.07.2018 20:00:00 18,8 11,1 - - 21 11 SW 1018,2 60 0,0
14.07.2018 19:00:00 19,9 11,9 - - 22 12 SW 1018,1 60 0,0
14.07.2018 18:00:00 20,9 12,6 - - 22 12 SW 1018,2 60 0,0
14.07.2018 17:00:00 21,9 12,6 - - 26 14 SW 1018,0 60 0,0
14.07.2018 16:00:00 22,7 11,9 - - 18 10 WSW 1018,3 60 0,0
14.07.2018 15:00:00 22,4 11,4 - - 18 10 SW 1018,6 60 0,0
14.07.2018 14:00:00 22,8 12,2 - - 18 10 WSW 1018,9 60 0,0
14.07.2018 13:00:00 22,7 11,0 - - 13 7 SW 1019,1 54 0,0
14.07.2018 12:00:00 22,4 11,5 - - 9 5 W 1019,4 60 0,0
14.07.2018 11:00:00 20,9 11,5 - - 9 5 W 1019,9 60 0,0
14.07.2018 10:00:00 19,1 12,5 18,7 17,2 4 2 W 1020,3 60 0,0
14.07.2018 09:00:00 14,4 14,1 - - 2 1 ENE 1021,2 54 0,0
14.07.2018 08:00:00 11,2 11,0 - - 4 2 ENE 1021,7 0 0,0
14.07.2018 07:00:00 10,3 10,0 - - 2 1 NW 1022,0 0 0,0
14.07.2018 06:00:00 9,7 9,3 - - 2 1 NE 1022,0 0 0,0
14.07.2018 05:00:00 8,8 8,2 - - 0 0 N 1022,2 0 0,0
14.07.2018 04:00:00 8,5 7,9 - - 0 0 N 1022,3 0 0,0
14.07.2018 03:00:00 9,2 8,3 - - 2 1 NNW 1022,2 0 0,0
14.07.2018 02:00:00 10,4 8,9 - - 0 0 N 1022,3 0 0,0
14.07.2018 01:00:00 11,7 10,4 - - 4 2 W 1022,5 - 0,0
14.07.2018 00:00:00 12,8 12,0 - - 2 1 ENE 1022,5 0 0,0
13.07.2018 23:00:00 12,7 11,5 - - 2 1 E 1022,3 0 0,0
13.07.2018 22:00:00 14,4 12,3 - - 4 2 ENE 1022,2 0 0,0
13.07.2018 21:00:00 17,3 14,2 - - 9 5 E 1021,3 6 0,0
13.07.2018 20:00:00 18,4 15,1 - - 8 4 ENE 1021,0 6 0,0
13.07.2018 19:00:00 18,3 15,1 - - 5 3 NE 1021,0 0 0,0
13.07.2018 18:00:00 20,1 15,5 - - 13 7 E 1020,8 42 0,0
13.07.2018 17:00:00 19,5 15,1 - - 9 5 E 1021,3 18 0,0
13.07.2018 16:00:00 17,9 15,3 - - 11 6 E 1021,8 0 0,0
13.07.2018 15:00:00 18,6 14,5 - - 5 3 NNW 1021,8 0 0,0
13.07.2018 14:00:00 18,4 15,9 - - 5 3 WNW 1021,7 6 0,0
13.07.2018 13:00:00 21,2 13,6 - - 5 3 W 1021,2 18 0,0
13.07.2018 12:00:00 21,9 14,8 - - 13 7 ESE 1021,4 48 0,0
13.07.2018 11:00:00 20,2 15,0 - - 9 5 E 1021,8 30 0,0
13.07.2018 10:00:00 17,5 14,1 18,9 17,2 11 6 SE 1022,1 0 0,0
13.07.2018 09:00:00 17,4 14,7 - - 5 3 E 1022,1 0 0,0
13.07.2018 08:00:00 16,5 15,1 - - 4 2 ENE 1022,2 0 0,0
13.07.2018 07:00:00 15,6 14,8 - - 2 1 NE 1022,3 0 0,0
13.07.2018 06:00:00 15,2 14,5 - - 2 1 N 1022,4 0 0,0
13.07.2018 05:00:00 15,3 14,4 - - 4 2 ESE 1022,4 0 0,0
13.07.2018 04:00:00 15,3 14,3 - - 0 0 N 1022,4 0 0,0
13.07.2018 03:00:00 15,5 14,5 - - 4 2 E 1022,6 0 0,0
13.07.2018 02:00:00 15,8 14,7 - - 5 3 E 1022,8 0 0,0
13.07.2018 01:00:00 15,8 15,1 - - 4 2 E 1022,8 - 0,0
13.07.2018 00:00:00 15,7 14,8 - - 2 1 ENE 1022,9 0 0,0
12.07.2018 23:00:00 15,9 14,6 - - 4 2 ENE 1022,7 0 0,0
12.07.2018 22:00:00 16,5 15,1 - - 8 4 E 1022,5 0 0,0
12.07.2018 21:00:00 17,2 15,7 - - 2 1 N 1022,1 0 0,0
12.07.2018 20:00:00 17,8 15,6 - - 2 1 E 1021,9 0 0,0
12.07.2018 19:00:00 18,0 15,7 - - 4 2 E 1021,8 0 0,0
12.07.2018 18:00:00 17,2 16,0 - - 2 1 S 1021,9 0 0,6
12.07.2018 17:00:00 16,8 15,7 - - 5 3 SW 1022,3 0 1,2
12.07.2018 16:00:00 17,3 15,0 - - 16 9 SW 1022,1 0 0,0
12.07.2018 15:00:00 20,5 13,7 - - 9 5 ENE 1021,4 6 0,0
12.07.2018 14:00:00 21,3 13,4 - - 5 3 ESE 1021,6 18 0,0
12.07.2018 13:00:00 20,2 13,9 - - 9 5 E 1021,9 0 0,0
12.07.2018 12:00:00 19,0 14,9 - - 9 5 ENE 1022,2 0 0,0
12.07.2018 11:00:00 17,8 15,2 - - 9 5 E 1022,3 0 0,0
12.07.2018 10:00:00 16,8 13,8 18,9 17,2 2 1 E 1022,3 0 0,0
12.07.2018 09:00:00 15,8 14,0 - - 2 1 N 1022,3 0 0,0
12.07.2018 08:00:00 14,3 13,6 - - 2 1 E 1022,5 0 0,2
12.07.2018 07:00:00 13,8 13,0 - - 0 0 N 1022,3 0 0,4
12.07.2018 06:00:00 13,6 12,7 - - 4 2 ENE 1022,2 0 0,0
12.07.2018 05:00:00 13,7 12,4 - - 2 1 ESE 1022,1 0 0,0
12.07.2018 04:00:00 14,0 12,5 - - 2 1 NNW 1022,2 0 0,0
12.07.2018 03:00:00 14,2 12,4 - - 0 0 N 1022,3 0 0,0
12.07.2018 02:00:00 14,3 12,3 - - 2 1 NNE 1022,4 0 0,0
12.07.2018 01:00:00 14,5 12,1 - - 0 0 N 1022,4 - 0,0
12.07.2018 00:00:00 14,8 12,3 - - 2 1 ESE 1022,5 0 0,0
11.07.2018 23:00:00 15,4 12,3 - - 0 0 N 1022,6 0 0,0
11.07.2018 22:00:00 16,0 12,0 - - 4 2 NNE 1022,4 0 0,0
11.07.2018 21:00:00 16,9 12,6 - - 4 2 N 1022,0 0 0,0
11.07.2018 20:00:00 18,1 12,4 - - 2 1 NNW 1021,6 0 0,0
11.07.2018 19:00:00 19,0 12,5 - - 5 3 N 1021,5 0 0,0
11.07.2018 18:00:00 20,1 13,0 - - 5 3 NNW 1021,3 0 0,0
11.07.2018 17:00:00 20,6 12,5 - - 4 2 NW 1021,4 0 0,0
11.07.2018 16:00:00 20,7 12,7 - - 4 2 NNW 1021,5 0 0,0
11.07.2018 15:00:00 20,2 12,7 - - 4 2 NNE 1021,7 0 0,0
11.07.2018 14:00:00 20,3 12,8 - - 8 4 NW 1022,0 0 0,0

tt = temperature
td = dewpoint
tt -20cm = temperature -20cm
tt -100cm = temperature -100cm
ff = wind speed
dd = wind direction
ppp = reduced air pressure
sd = sunshine duration
rr = precipitation

Next stations